Главная страница
METAR-TAF:

METAR-TAF

Аэропорты :

Гибралтар, Гибралтар

широта: 36-09N, долгота: 005-21W, высота над уровнем моря: 5 м

Текущие метеонаблюдения

Эта сводка был подготовлена 49 минут назад, в 02:50 UTC
Ветер 7 Узел от юго-западный
Температура 21°C
Влажность 69%
Давление 1016 hPa
Видимость 10 км и более

METAR: LXGB 150250Z AUTO 23007KT 9999 // NCD 21/15 Q1016

Время: 05:39 (03:39 UTC)

Прогноз

Эта сводка был подготовлена 14 часа и 17 минут назад, в 13:22 UTC
Прогноз действительный с 14-го 15 UTC до 14-го 22 UTC
Ветер 10 Узел от западный-юго-западный
Видимость 10 км и более
небольшая облачность на высоте 3000 фута
временами
С 14-го 15 UTC до 14-го 18 UTC
Ветер 13 Узел от южный-юго-западный
Вероятность 30% :
временами
С 14-го 15 UTC до 14-го 17 UTC
Ветер 15 Узел от южный с порывами до 25 Узел

TAF: LXGB 141322Z 1415/1422 24010KT 9999 FEW030 TEMPO 1415/1418 21013KT 520001 PROB30 TEMPO 1415/1417 19015G25KT 530001

Метеонаблюдения и прогнозы для более 4000 аэропортов (сводки METAR и TAF).

Имеющиеся станции представлены на карте желтыми и красными точками.

Чтобы увидеть название станции, наведите на нее мышь.

Затем щелкните, чтобы увидеть метеонаблюдения и метеопрогнозы.

Управление картой: чтобы увеличить масштаб, щелкните зеленые кнопки с черным крестиком; чтобы уменьшить масштаб, щелкните зеленую кнопку с тире; для просмотра соседних карт щелкайте зеленые стрелки.


METAR-TAF: